Time;durP1;ratioP1;P1;durP2;ratioP2;P2;SDS_P1;SDS_P2;PMS_P1;PMS_P2;Temp;Humidity;BMP_temperature;BMP_pressure;BME280_temperature;BME280_humidity;BME280_pressure;Samples;Min_cycle;Max_cycle;Signal;HPM_P1;HPM_P2
2022/01/10 00:02:58;;;;;;;14.70;6.28;;;;;;;0.40;100.00;101093.97;5064613;28;20052;-74
2022/01/10 00:12:26;;;;;;;15.75;6.43;;;;;;;0.39;100.00;101127.19;5063723;28;20114;-74
2022/01/10 00:21:47;;;;;;;21.17;6.97;;;;;;;0.42;100.00;101134.25;5064540;28;20040;-73
2022/01/10 00:27:42;;;;;;;21.23;7.83;;;;;;;0.39;100.00;101145.56;5067166;28;20052;-73
2022/01/10 00:34:16;;;;;;;14.85;7.25;;;;;;;0.58;100.00;101141.47;5062970;28;20407;-73
2022/01/10 00:37:02;;;;;;;13.73;7.28;;;;;;;0.52;100.00;101144.88;5055253;28;20095;-74
2022/01/10 00:39:29;;;;;;;16.95;7.07;;;;;;;0.48;100.00;101143.09;5067317;28;20078;-74
2022/01/10 00:41:59;;;;;;;16.65;6.63;;;;;;;0.48;100.00;101140.47;5064767;28;20139;-74
2022/01/10 00:44:31;;;;;;;14.73;6.80;;;;;;;0.54;100.00;101153.66;5066619;28;20063;-75
2022/01/10 00:46:58;;;;;;;17.55;6.95;;;;;;;0.60;100.00;101162.50;5066044;28;20040;-75
2022/01/10 00:49:28;;;;;;;16.58;7.22;;;;;;;0.58;100.00;101170.38;5063411;28;20478;-74
2022/01/10 00:51:55;;;;;;;17.83;6.25;;;;;;;0.54;100.00;101172.03;5064358;28;20055;-74
2022/01/10 00:54:23;;;;;;;15.40;6.78;;;;;;;0.60;100.00;101175.66;5062160;28;20515;-74
2022/01/10 00:56:51;;;;;;;15.48;5.90;;;;;;;0.53;100.00;101169.41;5063654;28;20056;-75
2022/01/10 00:59:19;;;;;;;18.30;6.53;;;;;;;0.58;100.00;101188.75;5069007;28;20056;-74
2022/01/10 01:01:47;;;;;;;16.20;7.15;;;;;;;0.64;100.00;101198.47;5071707;28;20152;-74
2022/01/10 01:04:15;;;;;;;18.92;6.82;;;;;;;0.75;100.00;101194.25;5065923;28;20044;-74
2022/01/10 01:06:45;;;;;;;12.95;6.63;;;;;;;0.80;100.00;101200.44;5069877;28;20064;-74
2022/01/10 01:09:27;;;;;;;16.70;7.95;;;;;;;0.84;100.00;101204.00;5068777;28;20509;-73
2022/01/10 01:12:41;;;;;;;11.85;7.57;;;;;;;0.80;100.00;101203.06;5036125;28;20131;-73
2022/01/10 01:15:56;;;;;;;19.27;7.75;;;;;;;0.97;100.00;101207.66;5066706;28;20036;-73
2022/01/10 01:26:23;;;;;;;16.67;8.20;;;;;;;1.36;100.00;101219.53;5014563;28;20049;-73
2022/01/10 01:29:49;;;;;;;28.45;8.90;;;;;;;1.32;100.00;101223.00;5000551;28;20045;-74
2022/01/10 01:36:41;;;;;;;25.02;9.40;;;;;;;1.33;100.00;101225.66;5106570;27;20092;-74
2022/01/10 02:00:44;;;;;;;19.95;9.70;;;;;;;1.18;100.00;101267.53;5058977;28;20139;-73
2022/01/10 02:11:55;;;;;;;20.50;10.55;;;;;;;1.18;100.00;101297.31;5101620;28;20055;-75
2022/01/10 02:15:25;;;;;;;29.02;10.90;;;;;;;1.25;100.00;101291.28;5105330;27;20745;-74
2022/01/10 02:19:00;;;;;;;26.45;11.60;;;;;;;1.22;100.00;101304.38;5094940;27;20093;-72
2022/01/10 02:33:12;;;;;;;21.80;11.48;;;;;;;1.18;100.00;101322.75;5106498;27;20097;-75
2022/01/10 02:36:30;;;;;;;24.45;11.80;;;;;;;1.18;100.00;101343.78;5104871;27;20559;-74
2022/01/10 02:40:23;;;;;;;28.33;14.48;;;;;;;1.19;100.00;101341.16;5105780;27;20730;-74
2022/01/10 02:55:30;;;;;;;27.20;14.75;;;;;;;1.27;100.00;101376.31;5104699;27;20811;-73
2022/01/10 03:05:30;;;;;;;35.22;15.35;;;;;;;1.30;100.00;101376.38;5106957;27;20052;-74
2022/01/10 03:08:44;;;;;;;27.58;14.52;;;;;;;1.31;100.00;101385.13;5099698;27;20495;-73
2022/01/10 03:18:24;;;;;;;29.13;14.30;;;;;;;1.28;100.00;101401.75;5099754;27;20064;-74
2022/01/10 03:24:29;;;;;;;26.23;13.85;;;;;;;1.34;100.00;101410.59;5103562;27;20286;-73
2022/01/10 03:41:13;;;;;;;27.58;12.93;;;;;;;1.32;100.00;101452.66;5105593;28;20059;-74
2022/01/10 03:44:17;;;;;;;30.40;13.70;;;;;;;1.36;100.00;101461.47;5101072;27;20052;-73
2022/01/10 03:47:10;;;;;;;27.00;14.52;;;;;;;1.38;100.00;101463.28;5065548;28;20051;-73
2022/01/10 03:53:04;;;;;;;23.98;13.60;;;;;;;1.36;100.00;101477.25;5101080;27;20055;-74
2022/01/10 04:02:33;;;;;;;33.67;14.82;;;;;;;1.44;100.00;101473.88;5103202;28;20899;-75
2022/01/10 04:05:01;;;;;;;24.73;13.93;;;;;;;1.42;100.00;101475.59;5089229;28;20051;-75
2022/01/10 04:07:29;;;;;;;26.77;13.90;;;;;;;1.37;100.00;101476.41;5091832;27;20052;-75
2022/01/10 04:09:56;;;;;;;29.13;14.38;;;;;;;1.36;100.00;101486.00;5087965;27;20044;-74
2022/01/10 04:12:25;;;;;;;22.20;13.27;;;;;;;1.33;100.00;101482.44;5088782;28;20488;-75
2022/01/10 04:14:53;;;;;;;27.52;14.60;;;;;;;1.37;100.00;101486.91;5087601;28;20051;-75
2022/01/10 04:17:21;;;;;;;39.17;17.50;;;;;;;1.56;100.00;101488.97;5087370;27;20048;-75
2022/01/10 04:20:00;;;;;;;26.60;16.63;;;;;;;1.54;100.00;101501.22;5091476;28;20057;-74
2022/01/10 04:36:02;;;;;;;35.95;17.85;;;;;;;1.67;100.00;101531.25;5088617;28;20059;-74
2022/01/10 04:42:50;;;;;;;33.80;16.48;;;;;;;1.78;100.00;101542.78;5087813;28;20079;-74
2022/01/10 04:48:37;;;;;;;32.42;17.55;;;;;;;1.79;100.00;101548.97;5087847;27;20075;-75
2022/01/10 04:51:15;;;;;;;31.88;18.15;;;;;;;1.79;100.00;101559.50;5088818;27;20039;-75
2022/01/10 04:53:47;;;;;;;36.92;18.48;;;;;;;1.77;100.00;101564.72;5087016;28;20164;-75
2022/01/10 04:56:17;;;;;;;31.00;17.20;;;;;;;1.74;100.00;101566.41;5087950;28;20049;-75
2022/01/10 04:58:45;;;;;;;32.40;17.88;;;;;;;1.73;100.00;101576.03;5087506;27;20048;-75
2022/01/10 05:01:14;;;;;;;37.53;18.95;;;;;;;1.76;100.00;101575.22;5090240;28;20405;-75
2022/01/10 05:03:43;;;;;;;32.67;16.88;;;;;;;1.74;100.00;101593.63;5085831;27;20131;-75
2022/01/10 05:06:14;;;;;;;30.13;17.92;;;;;;;1.74;100.00;101580.47;5088759;27;20130;-75
2022/01/10 05:08:42;;;;;;;32.45;17.92;;;;;;;1.79;100.00;101586.69;5087472;28;20171;-75
2022/01/10 05:11:10;;;;;;;32.55;16.45;;;;;;;1.74;100.00;101596.25;5087261;28;20142;-75
2022/01/10 05:13:38;;;;;;;30.23;18.83;;;;;;;1.69;100.00;101597.91;5086001;28;20051;-75
2022/01/10 05:16:06;;;;;;;36.25;17.33;;;;;;;1.66;100.00;101604.00;5084727;28;20055;-75
2022/01/10 05:18:36;;;;;;;31.95;18.52;;;;;;;1.62;100.00;101614.47;5086842;28;20051;-75
2022/01/10 05:21:04;;;;;;;30.02;18.63;;;;;;;1.55;100.00;101609.94;5089748;28;20284;-75
2022/01/10 05:23:33;;;;;;;31.45;17.05;;;;;;;1.50;100.00;101612.50;5086848;27;20055;-74
2022/01/10 05:26:02;;;;;;;30.83;15.95;;;;;;;1.55;100.00;101617.84;5086219;28;20054;-75
2022/01/10 05:28:30;;;;;;;29.30;17.17;;;;;;;1.48;100.00;101622.09;5087263;28;21369;-74
2022/01/10 05:31:00;;;;;;;29.40;16.58;;;;;;;1.43;100.00;101623.75;5084567;28;20132;-76
2022/01/10 05:33:28;;;;;;;34.97;17.75;;;;;;;1.40;100.00;101621.09;5086797;28;20043;-76
2022/01/10 05:35:59;;;;;;;34.10;18.83;;;;;;;1.36;100.00;101635.91;5085003;28;20059;-76
2022/01/10 05:38:27;;;;;;;35.83;21.05;;;;;;;1.30;100.00;101638.44;5087264;27;20059;-76
2022/01/10 05:40:56;;;;;;;29.13;16.60;;;;;;;1.26;100.00;101637.50;5082958;28;20044;-76
2022/01/10 05:43:24;;;;;;;21.50;15.15;;;;;;;1.24;100.00;101641.84;5089355;28;20043;-76
2022/01/10 05:45:52;;;;;;;25.75;14.65;;;;;;;1.26;100.00;101649.75;5087466;27;20087;-76
2022/01/10 05:48:25;;;;;;;24.27;14.52;;;;;;;1.27;100.00;101655.03;5084743;28;20058;-75
2022/01/10 05:51:20;;;;;;;29.70;15.05;;;;;;;1.35;100.00;101652.56;5084563;28;20063;-75
2022/01/10 05:53:49;;;;;;;26.60;15.40;;;;;;;1.34;100.00;101661.28;5085061;28;20404;-75
2022/01/10 05:56:19;;;;;;;40.13;17.50;;;;;;;1.37;100.00;101668.38;5083913;27;20146;-75
2022/01/10 05:58:46;;;;;;;37.75;17.98;;;;;;;1.45;100.00;101667.66;5085944;28;20568;-75
2022/01/10 06:01:18;;;;;;;37.25;19.23;;;;;;;1.80;100.00;101669.13;5086617;28;20055;-75
2022/01/10 06:03:48;;;;;;;33.28;21.20;;;;;;;2.02;100.00;101675.66;5086638;28;20051;-75
2022/01/10 06:06:16;;;;;;;42.70;21.50;;;;;;;2.08;100.00;101677.50;5077677;27;20059;-75
2022/01/10 06:08:47;;;;;;;38.67;20.52;;;;;;;2.04;100.00;101689.72;5089019;27;20079;-75
2022/01/10 06:11:16;;;;;;;36.70;20.58;;;;;;;2.07;100.00;101699.44;5084555;27;20540;-76
2022/01/10 06:13:47;;;;;;;40.00;20.38;;;;;;;2.09;100.00;101690.69;5087269;28;20143;-75
2022/01/10 06:16:16;;;;;;;39.45;20.75;;;;;;;2.08;100.00;101696.81;5085840;28;20055;-76
2022/01/10 06:18:44;;;;;;;40.08;20.77;;;;;;;2.01;100.00;101708.09;5086108;28;20054;-76
2022/01/10 06:21:12;;;;;;;33.47;18.58;;;;;;;1.97;100.00;101714.19;5085988;28;20058;-76
2022/01/10 06:23:40;;;;;;;29.05;19.08;;;;;;;1.96;100.00;101721.19;5086727;28;20076;-76
2022/01/10 06:26:08;;;;;;;33.42;18.25;;;;;;;1.91;100.00;101721.97;5086479;28;20394;-77
2022/01/10 06:28:36;;;;;;;29.48;18.13;;;;;;;1.88;100.00;101728.06;5086199;28;20453;-75
2022/01/10 06:31:05;;;;;;;28.65;17.58;;;;;;;1.89;100.00;101731.56;5087159;28;20155;-75
2022/01/10 06:33:57;;;;;;;31.03;18.93;;;;;;;1.84;100.00;101736.78;5088553;28;20084;-75
2022/01/10 06:36:25;;;;;;;33.47;17.58;;;;;;;1.81;100.00;101741.97;5083282;28;20051;-75
2022/01/10 06:38:53;;;;;;;34.10;18.20;;;;;;;1.81;100.00;101750.75;5087295;27;20083;-75
2022/01/10 06:41:21;;;;;;;36.35;18.08;;;;;;;1.79;100.00;101751.59;5087646;28;20051;-75
2022/01/10 06:43:48;;;;;;;26.63;17.38;;;;;;;1.75;100.00;101755.91;5083652;28;20047;-75
2022/01/10 06:46:18;;;;;;;30.25;16.80;;;;;;;1.72;100.00;101758.50;5086427;28;20050;-75
2022/01/10 06:48:46;;;;;;;27.05;17.88;;;;;;;1.68;100.00;101770.69;5085782;28;20404;-75
2022/01/10 06:51:15;;;;;;;28.88;17.70;;;;;;;1.70;100.00;101770.72;5085011;28;20124;-74
2022/01/10 06:53:45;;;;;;;26.20;16.67;;;;;;;1.66;100.00;101782.03;5085114;28;20468;-75
2022/01/10 06:56:15;;;;;;;30.08;18.23;;;;;;;1.67;100.00;101787.34;5087089;28;20423;-75
2022/01/10 06:58:42;;;;;;;32.55;18.45;;;;;;;1.74;100.00;101796.25;5085825;28;20055;-75
2022/01/10 07:01:10;;;;;;;31.10;19.27;;;;;;;1.79;100.00;101798.97;5084467;28;20531;-75
2022/01/10 07:03:40;;;;;;;40.03;20.75;;;;;;;1.84;100.00;101803.47;5085071;28;20051;-75
2022/01/10 07:06:08;;;;;;;38.47;21.33;;;;;;;1.85;100.00;101805.22;5086469;28;20499;-75
2022/01/10 07:08:36;;;;;;;37.28;19.13;;;;;;;1.88;100.00;101812.28;5083335;28;20044;-74
2022/01/10 07:11:06;;;;;;;34.33;21.13;;;;;;;1.94;100.00;101827.31;5085481;28;20059;-74
2022/01/10 07:13:34;;;;;;;38.33;22.38;;;;;;;1.99;100.00;101823.94;5084804;28;20522;-75
2022/01/10 07:16:02;;;;;;;36.35;22.77;;;;;;;2.06;100.00;101827.56;5085927;28;20101;-74
2022/01/10 07:18:30;;;;;;;50.45;24.30;;;;;;;2.11;100.00;101839.06;5086065;28;20047;-74
2022/01/10 07:28:11;;;;;;;51.25;26.40;;;;;;;2.12;100.00;101863.66;5085954;28;20140;-73
2022/01/10 07:48:38;;;;;;;47.90;23.38;;;;;;;2.17;100.00;101904.13;5088660;28;20099;-73
2022/01/10 08:02:20;;;;;;;45.90;24.13;;;;;;;2.18;100.00;101932.22;5046308;28;20048;-73
2022/01/10 08:05:37;;;;;;;46.70;26.02;;;;;;;2.27;100.00;101937.69;5049844;28;20052;-73
2022/01/10 08:15:54;;;;;;;42.17;23.30;;;;;;;2.22;100.00;101963.03;5024670;28;20057;-74
2022/01/10 08:29:02;;;;;;;41.00;24.25;;;;;;;2.33;100.00;101979.94;5038086;28;20055;-71
2022/01/10 08:39:22;;;;;;;55.90;27.38;;;;;;;2.56;100.00;102004.13;5086786;27;20063;-72
2022/01/10 08:56:44;;;;;;;47.00;24.17;;;;;;;2.85;100.00;102018.72;5106048;27;20540;-76
2022/01/10 08:59:11;;;;;;;47.15;25.83;;;;;;;2.91;100.00;102018.81;5109288;27;20079;-76
2022/01/10 09:01:39;;;;;;;58.17;26.52;;;;;;;2.94;100.00;102026.78;5109634;27;20279;-77
2022/01/10 09:04:08;;;;;;;48.80;25.67;;;;;;;2.98;100.00;102029.50;5106698;27;20075;-74
2022/01/10 09:06:37;;;;;;;46.58;25.10;;;;;;;3.03;100.00;102034.88;5107989;27;20074;-74
2022/01/10 09:09:06;;;;;;;44.03;25.38;;;;;;;3.07;100.00;102031.44;5107030;27;20052;-76
2022/01/10 09:11:58;;;;;;;46.67;26.48;;;;;;;3.12;100.00;102042.94;5106292;27;20252;-74
2022/01/10 09:14:26;;;;;;;45.45;24.77;;;;;;;3.16;100.00;102041.25;5101632;27;20052;-76
2022/01/10 09:16:54;;;;;;;50.25;26.40;;;;;;;3.21;100.00;102051.88;5105560;27;20138;-74
2022/01/10 09:19:22;;;;;;;39.85;24.15;;;;;;;3.22;100.00;102051.91;5108590;27;20153;-77
2022/01/10 09:25:27;;;;;;;50.15;23.95;;;;;;;3.31;100.00;102054.69;5106976;27;20082;-72
2022/01/10 09:28:42;;;;;;;40.10;24.20;;;;;;;3.38;100.00;102063.63;5085906;27;20059;-75
2022/01/10 09:31:12;;;;;;;44.75;25.20;;;;;;;3.43;100.00;102069.84;5082368;27;20221;-75
2022/01/10 09:33:40;;;;;;;40.55;23.48;;;;;;;3.48;100.00;102072.59;5088947;27;20078;-75
2022/01/10 09:36:10;;;;;;;45.03;24.45;;;;;;;3.52;100.00;102080.59;5083505;28;20157;-77
2022/01/10 09:38:39;;;;;;;42.15;22.77;;;;;;;3.55;100.00;102082.38;5083704;28;20431;-75
2022/01/10 09:41:07;;;;;;;42.92;23.52;;;;;;;3.61;100.00;102087.78;5081610;27;20059;-74
2022/01/10 09:43:36;;;;;;;38.95;23.02;;;;;;;3.67;100.00;102089.59;5084192;27;20600;-74
2022/01/10 09:49:36;;;;;;;40.58;23.25;;;;;;;3.81;100.00;102095.09;5082108;27;20095;-72
2022/01/10 09:52:21;;;;;;;38.60;22.40;;;;;;;3.90;100.00;102093.50;5104183;27;20059;-72
2022/01/10 09:55:12;;;;;;;46.65;23.15;;;;;;;3.89;100.00;102107.56;5088901;27;20423;-73
2022/01/10 10:01:49;;;;;;;42.10;21.30;;;;;;;4.00;100.00;102126.25;5090481;27;20106;-77
2022/01/10 10:04:18;;;;;;;40.65;22.83;;;;;;;4.13;100.00;102127.31;5104557;27;20155;-77
2022/01/10 10:06:47;;;;;;;38.97;21.45;;;;;;;4.23;100.00;102130.97;5106766;27;20083;-77
2022/01/10 10:09:16;;;;;;;35.92;19.92;;;;;;;4.24;100.00;102135.38;5105697;27;20077;-77
2022/01/10 10:11:49;;;;;;;35.83;19.20;;;;;;;4.33;100.00;102146.09;5110166;27;20131;-78
2022/01/10 10:14:18;;;;;;;31.52;19.55;;;;;;;4.40;100.00;102147.97;5105853;27;20716;-77
2022/01/10 10:16:53;;;;;;;31.50;18.45;;;;;;;4.42;100.00;102158.56;5107737;27;20047;-77
2022/01/10 10:33:23;;;;;;;30.42;15.95;;;;;;;4.57;100.00;102181.69;5106886;27;20055;-73
2022/01/10 10:36:25;;;;;;;31.98;17.40;;;;;;;4.61;100.00;102178.19;5104799;27;20043;-73
2022/01/10 10:39:24;;;;;;;25.58;15.45;;;;;;;4.65;100.00;102182.69;5093155;27;20047;-74
2022/01/10 10:41:58;;;;;;;34.13;17.08;;;;;;;4.71;100.00;102201.25;5089058;27;20552;-76
2022/01/10 10:44:26;;;;;;;36.50;17.63;;;;;;;4.72;100.00;102207.47;5106720;27;20186;-75
2022/01/10 10:46:55;;;;;;;35.58;17.17;;;;;;;4.79;100.00;102204.03;5104526;27;20050;-75
2022/01/10 10:49:32;;;;;;;27.17;16.33;;;;;;;4.82;100.00;102204.06;5104225;27;20051;-74
2022/01/10 10:52:01;;;;;;;25.65;15.75;;;;;;;4.83;100.00;102213.75;5107392;27;20483;-74
2022/01/10 10:54:32;;;;;;;26.17;15.13;;;;;;;4.86;100.00;102217.34;5104982;28;20300;-74
2022/01/10 10:57:00;;;;;;;33.42;15.77;;;;;;;4.88;100.00;102224.41;5104655;27;20586;-74
2022/01/10 10:59:34;;;;;;;36.78;17.45;;;;;;;4.89;100.00;102228.81;5106454;27;20051;-74
2022/01/10 11:02:04;;;;;;;33.05;17.10;;;;;;;4.93;100.00;102228.88;5104237;27;21114;-74
2022/01/10 11:04:36;;;;;;;29.83;14.43;;;;;;;5.01;100.00;102232.53;5106359;27;20051;-74
2022/01/10 11:07:32;;;;;;;26.90;14.85;;;;;;;5.00;100.00;102236.03;5103544;27;20144;-75
2022/01/10 11:10:14;;;;;;;32.53;15.43;;;;;;;5.08;100.00;102237.91;5105787;27;20105;-75
2022/01/10 11:12:49;;;;;;;31.88;15.63;;;;;;;4.93;100.00;102244.75;5102159;27;20137;-74
2022/01/10 11:15:17;;;;;;;29.73;15.35;;;;;;;4.97;100.00;102251.88;5109176;27;20070;-74
2022/01/10 11:17:45;;;;;;;26.80;14.27;;;;;;;4.95;100.00;102250.97;5109009;27;20059;-74
2022/01/10 11:20:17;;;;;;;33.22;15.80;;;;;;;4.97;100.00;102251.88;5109112;27;20081;-74
2022/01/10 11:22:50;;;;;;;27.10;15.65;;;;;;;4.99;100.00;102251.91;5108860;27;20131;-73
2022/01/10 11:25:29;;;;;;;26.42;14.75;;;;;;;5.00;100.00;102256.31;5106812;27;20511;-73
2022/01/10 11:28:05;;;;;;;34.90;16.05;;;;;;;4.99;100.00;102265.16;5107464;27;21688;-74
2022/01/10 11:30:37;;;;;;;32.35;16.17;;;;;;;5.08;100.00;102264.38;5106150;27;21201;-74
2022/01/10 11:33:32;;;;;;;32.50;15.70;;;;;;;4.93;100.00;102265.94;5110457;27;20074;-75
2022/01/10 11:36:09;;;;;;;30.00;15.13;;;;;;;4.98;100.00;102266.00;5111400;27;20051;-74
2022/01/10 11:38:44;;;;;;;27.55;14.38;;;;;;;5.02;100.00;102276.66;5090751;27;20054;-74
2022/01/10 11:41:14;;;;;;;28.00;15.93;;;;;;;5.05;100.00;102276.66;5109350;27;20055;-74
2022/01/10 11:43:51;;;;;;;27.65;14.10;;;;;;;5.12;100.00;102284.69;5109867;27;20191;-74
2022/01/10 11:46:23;;;;;;;29.73;15.10;;;;;;;5.02;100.00;102287.22;5098653;27;20623;-75
2022/01/10 11:48:55;;;;;;;34.83;15.52;;;;;;;5.09;100.00;102280.28;5113032;27;20146;-74
2022/01/10 11:51:27;;;;;;;30.38;15.25;;;;;;;5.15;100.00;102288.28;5110768;27;21308;-75
2022/01/10 11:54:01;;;;;;;32.88;16.25;;;;;;;5.12;100.00;102290.00;5111172;27;20160;-74
2022/01/10 11:56:32;;;;;;;29.35;16.35;;;;;;;5.03;100.00;102299.56;5108967;27;20657;-74
2022/01/10 11:59:12;;;;;;;30.77;16.80;;;;;;;5.04;100.00;102296.06;5108838;27;20073;-74
2022/01/10 12:01:42;;;;;;;31.13;16.17;;;;;;;5.09;100.00;102308.47;5104278;27;20244;-74
2022/01/10 12:04:10;;;;;;;35.88;17.48;;;;;;;5.07;100.00;102304.91;5107504;27;20153;-74
2022/01/10 12:06:40;;;;;;;35.08;17.63;;;;;;;5.09;100.00;102305.81;5106850;27;20650;-74
2022/01/10 12:09:08;;;;;;;28.85;16.33;;;;;;;5.10;100.00;102316.44;5108533;27;20165;-74
2022/01/10 12:12:02;;;;;;;33.10;15.70;;;;;;;5.16;100.00;102310.31;5107329;27;20104;-73
2022/01/10 12:14:34;;;;;;;29.42;15.70;;;;;;;5.20;100.00;102310.41;5107482;27;20055;-74
2022/01/10 12:17:07;;;;;;;29.30;15.77;;;;;;;5.15;100.00;102314.75;5089866;27;20051;-74
2022/01/10 12:20:02;;;;;;;32.10;15.48;;;;;;;5.15;100.00;102320.03;5093941;27;20507;-73
2022/01/10 12:22:38;;;;;;;27.33;15.38;;;;;;;5.24;100.00;102325.47;5108422;27;20178;-74
2022/01/10 12:25:09;;;;;;;29.20;14.68;;;;;;;5.27;100.00;102327.25;5106355;27;20051;-74
2022/01/10 12:27:42;;;;;;;26.25;14.38;;;;;;;5.38;100.00;102338.88;5108864;27;20103;-74
2022/01/10 12:30:13;;;;;;;36.42;15.35;;;;;;;5.43;100.00;102330.97;5087009;27;20336;-74
2022/01/10 12:32:42;;;;;;;29.17;14.57;;;;;;;5.45;100.00;102334.56;5088090;27;20063;-75
2022/01/10 12:35:11;;;;;;;25.52;13.70;;;;;;;5.49;100.00;102338.13;5088160;27;20310;-74
2022/01/10 12:37:44;;;;;;;22.02;13.18;;;;;;;5.51;100.00;102339.91;5103171;27;20136;-75
2022/01/10 12:40:20;;;;;;;27.67;14.65;;;;;;;5.48;100.00;102341.63;5105610;27;20047;-73
2022/01/10 12:42:51;;;;;;;26.50;12.23;;;;;;;5.54;100.00;102344.38;5107168;27;20062;-75
2022/01/10 12:45:19;;;;;;;27.05;12.85;;;;;;;5.59;100.00;102355.91;5107007;27;20051;-74
2022/01/10 12:47:47;;;;;;;25.67;12.55;;;;;;;5.62;100.00;102355.97;5106398;27;20053;-76
2022/01/10 12:50:15;;;;;;;25.45;11.18;;;;;;;5.61;100.00;102363.00;5105570;27;20460;-74
2022/01/10 12:53:09;;;;;;;24.17;12.55;;;;;;;5.69;100.00;102372.81;5107239;27;20189;-74
2022/01/10 12:56:01;;;;;;;29.50;12.18;;;;;;;5.68;100.00;102363.97;5107522;27;20074;-74
2022/01/10 12:58:29;;;;;;;23.83;11.50;;;;;;;5.74;100.00;102366.69;5105058;27;20042;-75
2022/01/10 13:01:08;;;;;;;25.55;10.90;;;;;;;5.73;100.00;102372.84;5106011;27;20055;-73
2022/01/10 13:03:38;;;;;;;22.35;10.93;;;;;;;5.80;100.00;102368.53;5091156;27;20548;-76
2022/01/10 13:06:11;;;;;;;25.30;11.15;;;;;;;5.86;100.00;102379.22;5105568;27;20079;-75
2022/01/10 13:08:48;;;;;;;23.45;11.43;;;;;;;5.92;100.00;102387.22;5108131;27;20062;-75
2022/01/10 13:11:20;;;;;;;23.33;11.25;;;;;;;5.98;100.00;102387.31;5108374;27;20051;-73
2022/01/10 13:13:48;;;;;;;22.25;11.38;;;;;;;5.95;100.00;102378.44;5090324;27;20340;-74
2022/01/10 13:16:24;;;;;;;28.30;13.05;;;;;;;6.03;100.00;102383.84;5104511;27;20223;-75
2022/01/10 13:18:57;;;;;;;27.52;12.00;;;;;;;5.94;100.00;102393.44;5107535;27;20508;-74
2022/01/10 13:21:37;;;;;;;24.52;11.35;;;;;;;6.03;100.00;102394.44;5102949;27;20548;-74
2022/01/10 13:24:12;;;;;;;23.92;11.43;;;;;;;6.11;100.00;102398.97;5110640;27;20105;-74
2022/01/10 13:26:58;;;;;;;29.08;11.48;;;;;;;6.15;100.00;102402.53;5106464;27;20177;-74
2022/01/10 13:29:38;;;;;;;25.02;12.02;;;;;;;6.07;100.00;102398.91;5108478;27;20055;-75
2022/01/10 13:32:19;;;;;;;28.40;11.35;;;;;;;6.07;100.00;102393.59;5107406;27;20075;-75
2022/01/10 13:34:49;;;;;;;24.27;11.32;;;;;;;6.07;100.00;102398.91;5110415;27;20089;-75
2022/01/10 13:37:28;;;;;;;23.60;11.13;;;;;;;6.08;100.00;102403.31;5105853;27;20048;-75
2022/01/10 13:40:11;;;;;;;25.52;10.48;;;;;;;6.07;100.00;102409.50;5106903;27;20162;-74
2022/01/10 13:42:46;;;;;;;21.55;10.57;;;;;;;6.09;100.00;102405.13;5106973;27;20391;-75
2022/01/10 13:45:18;;;;;;;23.90;11.18;;;;;;;6.00;100.00;102399.72;5106487;27;20433;-77
2022/01/10 13:47:58;;;;;;;22.50;10.93;;;;;;;5.97;100.00;102408.50;5108770;27;20086;-76
2022/01/10 13:50:28;;;;;;;21.83;10.60;;;;;;;5.87;100.00;102409.22;5107433;27;20043;-76
2022/01/10 13:53:05;;;;;;;28.10;11.25;;;;;;;5.89;100.00;102410.13;5107444;27;20074;-76
2022/01/10 13:55:36;;;;;;;25.88;11.98;;;;;;;5.82;100.00;102422.41;5106914;27;20043;-73
2022/01/10 13:58:23;;;;;;;20.52;11.63;;;;;;;5.80;100.00;102411.78;5107781;27;20345;-73
2022/01/10 14:00:56;;;;;;;34.95;13.15;;;;;;;5.79;100.00;102420.63;5104064;27;20046;-74
2022/01/10 14:03:26;;;;;;;25.45;13.38;;;;;;;5.78;100.00;102431.19;5106042;27;20055;-74
2022/01/10 14:06:07;;;;;;;25.88;12.65;;;;;;;5.73;100.00;102428.47;5103609;27;20071;-74
2022/01/10 14:08:36;;;;;;;33.63;13.02;;;;;;;5.71;100.00;102438.19;5105501;27;20465;-74
2022/01/10 14:11:06;;;;;;;22.00;13.07;;;;;;;5.66;100.00;102436.34;5107126;27;20134;-74
2022/01/10 14:13:34;;;;;;;27.67;12.18;;;;;;;5.64;100.00;102433.66;5102966;27;20163;-74
2022/01/10 14:16:02;;;;;;;27.33;12.82;;;;;;;5.63;100.00;102434.53;5106589;27;20058;-74
2022/01/10 14:18:30;;;;;;;30.85;12.48;;;;;;;5.59;100.00;102440.66;5104445;27;20509;-74
2022/01/10 14:20:58;;;;;;;25.55;11.50;;;;;;;5.58;100.00;102442.44;5106873;27;20055;-74
2022/01/10 14:23:28;;;;;;;26.67;12.25;;;;;;;5.54;100.00;102443.22;5106073;27;20146;-74
2022/01/10 14:25:56;;;;;;;27.10;12.82;;;;;;;5.52;100.00;102444.09;5106930;27;20063;-74
2022/01/10 14:28:26;;;;;;;24.05;13.25;;;;;;;5.54;100.00;102450.28;5107199;27;20043;-74
2022/01/10 14:30:54;;;;;;;28.60;12.85;;;;;;;5.57;100.00;102455.66;5104325;27;20047;-74
2022/01/10 14:33:23;;;;;;;25.17;11.00;;;;;;;5.60;100.00;102453.94;5105453;27;20051;-74
2022/01/10 14:35:52;;;;;;;26.60;12.73;;;;;;;5.65;100.00;102459.25;5106889;27;20206;-74
2022/01/10 14:38:20;;;;;;;28.73;10.50;;;;;;;5.73;100.00;102460.25;5108061;27;20466;-75
2022/01/10 14:40:49;;;;;;;21.63;10.20;;;;;;;5.72;100.00;102466.47;5106906;27;20550;-74
2022/01/10 14:43:17;;;;;;;26.58;11.75;;;;;;;5.70;100.00;102472.59;5107084;27;20530;-74
2022/01/10 14:45:47;;;;;;;25.98;10.77;;;;;;;5.75;100.00;102473.53;5104266;27;20066;-74
2022/01/10 14:48:15;;;;;;;23.77;10.13;;;;;;;5.79;100.00;102475.38;5106028;27;20223;-73
2022/01/10 14:51:09;;;;;;;23.75;10.40;;;;;;;5.78;100.00;102481.53;5105221;27;20090;-74
2022/01/10 14:53:38;;;;;;;25.73;12.02;;;;;;;5.70;100.00;102491.13;5104757;27;20078;-74
2022/01/10 14:56:09;;;;;;;31.08;12.73;;;;;;;5.67;100.00;102492.00;5100351;27;20046;-74
2022/01/10 14:58:37;;;;;;;22.00;11.88;;;;;;;5.57;100.00;102500.66;5107157;27;20054;-74
2022/01/10 15:01:06;;;;;;;22.40;10.02;;;;;;;5.45;100.00;102493.41;5102241;27;20165;-74
2022/01/10 15:03:35;;;;;;;20.40;9.77;;;;;;;5.36;100.00;102506.50;5107677;27;20051;-74
2022/01/10 15:06:07;;;;;;;18.77;9.15;;;;;;;5.28;100.00;102508.13;5106341;28;20135;-76
2022/01/10 15:08:37;;;;;;;22.92;8.95;;;;;;;5.24;100.00;102509.81;5106690;27;20048;-75
2022/01/10 15:11:04;;;;;;;21.40;9.68;;;;;;;5.14;100.00;102507.88;5104661;27;20052;-74
2022/01/10 15:13:32;;;;;;;24.92;9.95;;;;;;;5.04;100.00;102514.81;5103118;27;20063;-75
2022/01/10 15:16:00;;;;;;;27.70;11.82;;;;;;;5.01;100.00;102520.03;5107180;27;20561;-73
2022/01/10 15:18:31;;;;;;;29.02;11.45;;;;;;;4.92;100.00;102535.72;5104721;27;20052;-73
2022/01/10 15:20:59;;;;;;;27.95;12.65;;;;;;;4.89;100.00;102535.66;5105208;27;20121;-73
2022/01/10 15:23:32;;;;;;;21.95;10.25;;;;;;;4.81;100.00;102543.47;5103033;27;20429;-73
2022/01/10 15:26:00;;;;;;;30.35;11.25;;;;;;;4.74;100.00;102542.47;5105303;27;20051;-72
2022/01/10 15:28:27;;;;;;;24.73;11.27;;;;;;;4.65;100.00;102550.22;5097879;27;20448;-76
2022/01/10 15:30:55;;;;;;;25.42;10.90;;;;;;;4.55;100.00;102549.16;5105182;27;20055;-72
2022/01/10 15:33:25;;;;;;;28.13;11.48;;;;;;;4.51;100.00;102546.41;5104483;27;20069;-72
2022/01/10 15:35:58;;;;;;;21.35;10.80;;;;;;;4.40;100.00;102560.28;5103971;27;20049;-73
2022/01/10 15:38:27;;;;;;;23.05;10.02;;;;;;;4.36;100.00;102553.16;5104499;27;20088;-73
2022/01/10 15:40:54;;;;;;;26.33;10.00;;;;;;;4.32;100.00;102564.50;5105766;27;20048;-72
2022/01/10 15:43:22;;;;;;;24.85;10.43;;;;;;;4.21;100.00;102566.06;5107008;27;20138;-72
2022/01/10 15:45:50;;;;;;;22.55;10.57;;;;;;;4.11;100.00;102572.88;5105895;27;20429;-72
2022/01/10 15:48:18;;;;;;;27.77;10.98;;;;;;;4.01;100.00;102581.47;5106038;27;20046;-72
2022/01/10 15:50:46;;;;;;;26.25;10.63;;;;;;;3.90;100.00;102586.50;5104072;27;20055;-72
2022/01/10 15:53:15;;;;;;;26.90;10.70;;;;;;;3.89;100.00;102582.06;5105299;27;20035;-77
2022/01/10 15:55:44;;;;;;;28.40;10.63;;;;;;;3.88;100.00;102586.47;5103779;27;20082;-74